Donau Ekspres II — TCUR7 — position and weather

sailwx.info

Track history (hours):
 
Tides and Currents Weather Stations Pressure Air Temp Water Temp Dewpoint Dewpoint Depression Visibility Wind Speed Wind Dir Waves Ship Positions

Donau Ekspres II

Last reported at 2018-Jun-16 00:11 UTC. Time now 2018-Jun-20 11:32 UTC.
Position N 37°07' E 005°12'.

Length 97 m; draft 6 m.

Type: Ship. MMSI: 271043190.

Date/timePositionNaut miles runAvg speedWind from/ knotsBaromVisibWave heightAir tempDewpointWater temp
2018-Jun-16 00:11N 37°07' E 005°12'0 0.7
2018-Jun-15 23:59N 37°07' E 005°11'0 0.6
2018-Jun-15 23:29N 37°06' E 005°11'216 5.3
2018-Jun-14 07:01N 36°43' E 000°43'1 8.4
2018-Jun-14 06:57N 36°42' E 000°43'42 8.0
2018-Jun-14 01:39N 36°36' W 000°09'1 7.6
2018-Jun-14 01:30N 36°35' W 000°11'5 7.4
2018-Jun-14 00:50N 36°35' W 000°17'5 7.4
2018-Jun-14 00:07N 36°33' W 000°23'1 7.4
2018-Jun-14 00:00N 36°33' W 000°24'4 7.3
2018-Jun-13 23:27N 36°33' W 000°29'3 7.4
2018-Jun-13 23:01N 36°32' W 000°33'4 7.8
2018-Jun-13 22:31N 36°31' W 000°38'7 7.9
2018-Jun-13 21:35N 36°31' W 000°47'1 8.0
2018-Jun-13 21:30N 36°31' W 000°48'215 8.7
2018-Jun-12 20:45N 36°05' W 005°12'311.9
2018-Jun-12 20:30N 36°05' W 005°16'4 9.0
2018-Jun-12 20:00N 36°06' W 005°21'3 5.1
2018-Jun-12 19:30N 36°09' W 005°22'5 1.2
2018-Jun-12 15:39N 36°04' W 005°22'1 7.2
2018-Jun-12 15:30N 36°03' W 005°23'510.1
2018-Jun-12 14:59N 35°58' W 005°26'262 7.8
2018-Jun-11 05:19N 38°23' W 010°00'7 8.7
2018-Jun-11 04:33N 38°30' W 010°02'1 9.1
2018-Jun-11 04:29N 38°30' W 010°02'10 8.8
2018-Jun-11 03:18N 38°40' W 010°05'3 8.7
2018-Jun-11 03:00N 38°43' W 010°06'5 8.6
2018-Jun-11 02:25N 38°48' W 010°06'6 8.8
2018-Jun-11 01:46N 38°54' W 010°06'2 8.6
2018-Jun-11 01:30N 38°56' W 010°06'5 8.7
2018-Jun-11 00:59N 39°01' W 010°06'4 8.3
2018-Jun-11 00:31N 39°05' W 010°06'4 8.3
2018-Jun-11 00:00N 39°09' W 010°06'  
2018-Jun-08 16:29N 43°45' W 005°52'11 8.3
2018-Jun-08 15:13N 43°44' W 005°38'3 8.3
2018-Jun-08 14:51N 43°44' W 005°33'4 8.6
2018-Jun-08 14:25N 43°43' W 005°28'4 8.6
2018-Jun-08 13:56N 43°43' W 005°23'4 8.2
2018-Jun-08 13:23N 43°43' W 005°16'4 8.0
2018-Jun-08 12:53N 43°42' W 005°11'70 8.7
2018-Jun-08 04:47N 43°37' W 003°34'3 9.1
2018-Jun-08 04:30N 43°37' W 003°30'5 9.1
2018-Jun-08 04:00N 43°36' W 003°24'9 9.2
2018-Jun-08 03:00N 43°36' W 003°11'5 9.2
2018-Jun-08 02:31N 43°35' W 003°05'5 9.0
2018-Jun-08 02:00N 43°35' W 002°59'5 9.1
2018-Jun-08 01:30N 43°35' W 002°53'5 9.3
2018-Jun-08 01:00N 43°34' W 002°46'5 9.3
2018-Jun-08 00:30N 43°33' W 002°40'4 9.0
2018-Jun-08 00:01N 43°31' W 002°34'4 8.7
2018-Jun-07 23:30N 43°30' W 002°29'4 8.8
2018-Jun-07 23:01N 43°28' W 002°23'4 8.9
2018-Jun-07 22:31N 43°27' W 002°17'5 9.0
2018-Jun-07 22:00N 43°25' W 002°11'4 9.0
2018-Jun-07 21:30N 43°24' W 002°06'4 9.0
2018-Jun-07 21:00N 43°23' W 001°60'4 7.1
2018-Jun-07 20:31N 43°20' W 001°56'2 2.9
2018-Jun-07 19:59N 43°19' W 001°55'0 0.0
2018-Jun-07 19:29N 43°19' W 001°55'0 0.0
2018-Jun-07 18:59N 43°19' W 001°55'0 0.0
2018-Jun-07 18:29N 43°19' W 001°55'0 0.0
2018-Jun-07 17:35N 43°19' W 001°55'0 0.1
2018-Jun-07 17:29N 43°19' W 001°55'0 0.0
2018-Jun-07 16:59N 43°19' W 001°55'0 0.0
2018-Jun-07 16:29N 43°19' W 001°55'0 0.0
2018-Jun-07 15:59N 43°19' W 001°55'0 0.0
2018-Jun-07 15:20N 43°19' W 001°55'0 0.0
2018-Jun-07 14:59N 43°19' W 001°55'0 0.0
2018-Jun-07 14:29N 43°19' W 001°55'0 0.0
2018-Jun-07 13:59N 43°19' W 001°55'0 0.0
2018-Jun-07 13:26N 43°19' W 001°55'0 0.0
2018-Jun-07 12:59N 43°19' W 001°55'0 0.0
2018-Jun-07 12:29N 43°19' W 001°55'0 0.0
2018-Jun-07 11:59N 43°19' W 001°55'0 0.0
2018-Jun-07 11:26N 43°19' W 001°55'0 0.0
2018-Jun-07 10:56N 43°19' W 001°55'0 0.0
2018-Jun-07 10:29N 43°19' W 001°55'0 0.0
2018-Jun-07 09:59N 43°19' W 001°55'0 0.0
2018-Jun-07 09:29N 43°19' W 001°55'0 0.0
2018-Jun-07 08:56N 43°19' W 001°55'0 0.0
2018-Jun-07 08:29N 43°19' W 001°55'0 0.0
2018-Jun-07 07:56N 43°19' W 001°55'0 0.0
2018-Jun-07 07:29N 43°19' W 001°55'0 0.0
2018-Jun-07 06:59N 43°19' W 001°55'0 0.0
2018-Jun-07 06:29N 43°19' W 001°55'0 0.0
2018-Jun-07 05:59N 43°19' W 001°55'0 0.0
2018-Jun-07 05:29N 43°19' W 001°55'0 0.0
2018-Jun-07 04:59N 43°19' W 001°55'0 0.0
2018-Jun-07 04:26N 43°19' W 001°55'0 0.0
2018-Jun-07 03:59N 43°19' W 001°55'0 0.0
2018-Jun-07 03:29N 43°19' W 001°55'0 0.0
2018-Jun-07 02:59N 43°19' W 001°55'0 0.0
2018-Jun-07 02:29N 43°19' W 001°55'0 0.0
2018-Jun-07 01:59N 43°19' W 001°55'0 0.0
2018-Jun-07 01:29N 43°19' W 001°55'0 0.0
2018-Jun-07 00:59N 43°19' W 001°55'0 0.0
2018-Jun-07 00:29N 43°19' W 001°55'0 0.0
2018-Jun-06 23:59N 43°19' W 001°55'0 0.0
2018-Jun-06 23:29N 43°19' W 001°55'0 0.0
2018-Jun-06 22:59N 43°19' W 001°55'0 0.0
2018-Jun-06 22:29N 43°19' W 001°55'0 0.0
2018-Jun-06 21:59N 43°19' W 001°55'0 0.0
2018-Jun-06 21:29N 43°19' W 001°55'0 0.0
2018-Jun-06 20:59N 43°19' W 001°55'0 0.0
2018-Jun-06 20:29N 43°19' W 001°55'0 0.0
2018-Jun-06 19:59N 43°19' W 001°55'0 0.0
2018-Jun-06 19:29N 43°19' W 001°55'0 0.0
2018-Jun-06 18:59N 43°19' W 001°55'0 0.0
2018-Jun-06 18:29N 43°19' W 001°55'0 0.0
2018-Jun-06 17:35N 43°19' W 001°55'0 0.0
2018-Jun-06 17:29N 43°19' W 001°55'0 0.0
2018-Jun-06 16:59N 43°19' W 001°55'0 0.0
2018-Jun-06 16:29N 43°19' W 001°55'0 0.0
2018-Jun-06 15:59N 43°19' W 001°55'0 0.0
2018-Jun-06 15:29N 43°19' W 001°55'0 0.0
2018-Jun-06 14:59N 43°19' W 001°55'0 0.0
2018-Jun-06 14:29N 43°19' W 001°55'0 0.0
2018-Jun-06 13:59N 43°19' W 001°55'0 0.0
2018-Jun-06 13:29N 43°19' W 001°55'0 0.0
2018-Jun-06 12:59N 43°19' W 001°55'0 0.0
2018-Jun-06 12:29N 43°19' W 001°55'0 0.0
2018-Jun-06 11:59N 43°19' W 001°55'0 0.0
2018-Jun-06 11:29N 43°19' W 001°55'0 0.0
2018-Jun-06 10:59N 43°19' W 001°55'0 0.0
2018-Jun-06 10:29N 43°19' W 001°55'0 0.0
2018-Jun-06 09:59N 43°19' W 001°55'0 0.0
2018-Jun-06 09:23N 43°19' W 001°55'0 0.0
2018-Jun-06 08:53N 43°19' W 001°55'0 0.0
2018-Jun-06 08:29N 43°19' W 001°55'0 0.0
2018-Jun-06 07:56N 43°19' W 001°55'0 0.0
2018-Jun-06 07:29N 43°19' W 001°55'0 0.0
2018-Jun-06 06:59N 43°19' W 001°55'1 2.6
2018-Jun-06 06:30N 43°20' W 001°56'1 2.4
2018-Jun-06 06:00N 43°21' W 001°55'0 0.0
2018-Jun-06 05:30N 43°21' W 001°55'0 0.0
2018-Jun-06 05:00N 43°21' W 001°55'0 0.0
2018-Jun-06 04:30N 43°21' W 001°55'0 0.0
2018-Jun-06 04:00N 43°21' W 001°55'0 0.1
2018-Jun-06 03:30N 43°21' W 001°55'0 0.0
2018-Jun-06 03:00N 43°21' W 001°55'0 0.0
2018-Jun-06 02:30N 43°21' W 001°55'0 0.0
2018-Jun-06 02:00N 43°21' W 001°55'0 0.0
2018-Jun-06 01:30N 43°21' W 001°55'0 0.0
2018-Jun-06 01:00N 43°21' W 001°55'0 0.0
2018-Jun-06 00:30N 43°21' W 001°55'  
Track history (hours):
 
Tides and Currents Weather Stations Pressure Air Temp Water Temp Dewpoint Dewpoint Depression Visibility Wind Speed Wind Dir Waves Ship Positions

Donau Ekspres II

Last reported at 2018-Jun-16 00:11 UTC. Time now 2018-Jun-20 11:33 UTC.
Position N 37°07' E 005°12'.

Length 97 m; draft 6 m.

Type: Ship. MMSI: 271043190.

Date/timePositionNaut miles runAvg speedWind from/ knotsBaromVisibWave heightAir tempDewpointWater temp
2018-Jun-16 00:11N 37°07' E 005°12'0 0.7
2018-Jun-15 23:59N 37°07' E 005°11'0 0.6
2018-Jun-15 23:29N 37°06' E 005°11'216 5.3
2018-Jun-14 07:01N 36°43' E 000°43'1 8.4
2018-Jun-14 06:57N 36°42' E 000°43'42 8.0
2018-Jun-14 01:39N 36°36' W 000°09'1 7.6
2018-Jun-14 01:30N 36°35' W 000°11'5 7.4
2018-Jun-14 00:50N 36°35' W 000°17'5 7.4
2018-Jun-14 00:07N 36°33' W 000°23'1 7.4
2018-Jun-14 00:00N 36°33' W 000°24'4 7.3
2018-Jun-13 23:27N 36°33' W 000°29'3 7.4
2018-Jun-13 23:01N 36°32' W 000°33'4 7.8
2018-Jun-13 22:31N 36°31' W 000°38'7 7.9
2018-Jun-13 21:35N 36°31' W 000°47'1 8.0
2018-Jun-13 21:30N 36°31' W 000°48'215 8.7
2018-Jun-12 20:45N 36°05' W 005°12'311.9
2018-Jun-12 20:30N 36°05' W 005°16'4 9.0
2018-Jun-12 20:00N 36°06' W 005°21'3 5.1
2018-Jun-12 19:30N 36°09' W 005°22'5 1.2
2018-Jun-12 15:39N 36°04' W 005°22'1 7.2
2018-Jun-12 15:30N 36°03' W 005°23'510.1
2018-Jun-12 14:59N 35°58' W 005°26'262 7.8
2018-Jun-11 05:19N 38°23' W 010°00'7 8.7
2018-Jun-11 04:33N 38°30' W 010°02'1 9.1
2018-Jun-11 04:29N 38°30' W 010°02'10 8.8
2018-Jun-11 03:18N 38°40' W 010°05'3 8.7
2018-Jun-11 03:00N 38°43' W 010°06'5 8.6
2018-Jun-11 02:25N 38°48' W 010°06'6 8.8
2018-Jun-11 01:46N 38°54' W 010°06'2 8.6
2018-Jun-11 01:30N 38°56' W 010°06'5 8.7
2018-Jun-11 00:59N 39°01' W 010°06'4 8.3
2018-Jun-11 00:31N 39°05' W 010°06'4 8.3
2018-Jun-11 00:00N 39°09' W 010°06'  
2018-Jun-08 16:29N 43°45' W 005°52'11 8.3
2018-Jun-08 15:13N 43°44' W 005°38'3 8.3
2018-Jun-08 14:51N 43°44' W 005°33'4 8.6
2018-Jun-08 14:25N 43°43' W 005°28'4 8.6
2018-Jun-08 13:56N 43°43' W 005°23'4 8.2
2018-Jun-08 13:23N 43°43' W 005°16'4 8.0
2018-Jun-08 12:53N 43°42' W 005°11'70 8.7
2018-Jun-08 04:47N 43°37' W 003°34'3 9.1
2018-Jun-08 04:30N 43°37' W 003°30'5 9.1
2018-Jun-08 04:00N 43°36' W 003°24'9 9.2
2018-Jun-08 03:00N 43°36' W 003°11'5 9.2
2018-Jun-08 02:31N 43°35' W 003°05'5 9.0
2018-Jun-08 02:00N 43°35' W 002°59'5 9.1
2018-Jun-08 01:30N 43°35' W 002°53'5 9.3
2018-Jun-08 01:00N 43°34' W 002°46'5 9.3
2018-Jun-08 00:30N 43°33' W 002°40'4 9.0
2018-Jun-08 00:01N 43°31' W 002°34'4 8.7
2018-Jun-07 23:30N 43°30' W 002°29'4 8.8
2018-Jun-07 23:01N 43°28' W 002°23'4 8.9
2018-Jun-07 22:31N 43°27' W 002°17'5 9.0
2018-Jun-07 22:00N 43°25' W 002°11'4 9.0
2018-Jun-07 21:30N 43°24' W 002°06'4 9.0
2018-Jun-07 21:00N 43°23' W 001°60'4 7.1
2018-Jun-07 20:31N 43°20' W 001°56'2 2.9
2018-Jun-07 19:59N 43°19' W 001°55'0 0.0
2018-Jun-07 19:29N 43°19' W 001°55'0 0.0
2018-Jun-07 18:59N 43°19' W 001°55'0 0.0
2018-Jun-07 18:29N 43°19' W 001°55'0 0.0
2018-Jun-07 17:35N 43°19' W 001°55'0 0.1
2018-Jun-07 17:29N 43°19' W 001°55'0 0.0
2018-Jun-07 16:59N 43°19' W 001°55'0 0.0
2018-Jun-07 16:29N 43°19' W 001°55'0 0.0
2018-Jun-07 15:59N 43°19' W 001°55'0 0.0
2018-Jun-07 15:20N 43°19' W 001°55'0 0.0
2018-Jun-07 14:59N 43°19' W 001°55'0 0.0
2018-Jun-07 14:29N 43°19' W 001°55'0 0.0
2018-Jun-07 13:59N 43°19' W 001°55'0 0.0
2018-Jun-07 13:26N 43°19' W 001°55'0 0.0
2018-Jun-07 12:59N 43°19' W 001°55'0 0.0
2018-Jun-07 12:29N 43°19' W 001°55'0 0.0
2018-Jun-07 11:59N 43°19' W 001°55'0 0.0
2018-Jun-07 11:26N 43°19' W 001°55'0 0.0
2018-Jun-07 10:56N 43°19' W 001°55'0 0.0
2018-Jun-07 10:29N 43°19' W 001°55'0 0.0
2018-Jun-07 09:59N 43°19' W 001°55'0 0.0
2018-Jun-07 09:29N 43°19' W 001°55'0 0.0
2018-Jun-07 08:56N 43°19' W 001°55'0 0.0
2018-Jun-07 08:29N 43°19' W 001°55'0 0.0
2018-Jun-07 07:56N 43°19' W 001°55'0 0.0
2018-Jun-07 07:29N 43°19' W 001°55'0 0.0
2018-Jun-07 06:59N 43°19' W 001°55'0 0.0
2018-Jun-07 06:29N 43°19' W 001°55'0 0.0
2018-Jun-07 05:59N 43°19' W 001°55'0 0.0
2018-Jun-07 05:29N 43°19' W 001°55'0 0.0
2018-Jun-07 04:59N 43°19' W 001°55'0 0.0
2018-Jun-07 04:26N 43°19' W 001°55'0 0.0
2018-Jun-07 03:59N 43°19' W 001°55'0 0.0
2018-Jun-07 03:29N 43°19' W 001°55'0 0.0
2018-Jun-07 02:59N 43°19' W 001°55'0 0.0
2018-Jun-07 02:29N 43°19' W 001°55'0 0.0
2018-Jun-07 01:59N 43°19' W 001°55'0 0.0
2018-Jun-07 01:29N 43°19' W 001°55'0 0.0
2018-Jun-07 00:59N 43°19' W 001°55'0 0.0
2018-Jun-07 00:29N 43°19' W 001°55'0 0.0
2018-Jun-06 23:59N 43°19' W 001°55'0 0.0
2018-Jun-06 23:29N 43°19' W 001°55'0 0.0
2018-Jun-06 22:59N 43°19' W 001°55'0 0.0
2018-Jun-06 22:29N 43°19' W 001°55'0 0.0
2018-Jun-06 21:59N 43°19' W 001°55'0 0.0
2018-Jun-06 21:29N 43°19' W 001°55'0 0.0
2018-Jun-06 20:59N 43°19' W 001°55'0 0.0
2018-Jun-06 20:29N 43°19' W 001°55'0 0.0
2018-Jun-06 19:59N 43°19' W 001°55'0 0.0
2018-Jun-06 19:29N 43°19' W 001°55'0 0.0
2018-Jun-06 18:59N 43°19' W 001°55'0 0.0
2018-Jun-06 18:29N 43°19' W 001°55'0 0.0
2018-Jun-06 17:35N 43°19' W 001°55'0 0.0
2018-Jun-06 17:29N 43°19' W 001°55'0 0.0
2018-Jun-06 16:59N 43°19' W 001°55'0 0.0
2018-Jun-06 16:29N 43°19' W 001°55'0 0.0
2018-Jun-06 15:59N 43°19' W 001°55'0 0.0
2018-Jun-06 15:29N 43°19' W 001°55'0 0.0
2018-Jun-06 14:59N 43°19' W 001°55'0 0.0
2018-Jun-06 14:29N 43°19' W 001°55'0 0.0
2018-Jun-06 13:59N 43°19' W 001°55'0 0.0
2018-Jun-06 13:29N 43°19' W 001°55'0 0.0
2018-Jun-06 12:59N 43°19' W 001°55'0 0.0
2018-Jun-06 12:29N 43°19' W 001°55'0 0.0
2018-Jun-06 11:59N 43°19' W 001°55'0 0.0
2018-Jun-06 11:29N 43°19' W 001°55'0 0.0
2018-Jun-06 10:59N 43°19' W 001°55'0 0.0
2018-Jun-06 10:29N 43°19' W 001°55'0 0.0
2018-Jun-06 09:59N 43°19' W 001°55'0 0.0
2018-Jun-06 09:23N 43°19' W 001°55'0 0.0
2018-Jun-06 08:53N 43°19' W 001°55'0 0.0
2018-Jun-06 08:29N 43°19' W 001°55'0 0.0
2018-Jun-06 07:56N 43°19' W 001°55'0 0.0
2018-Jun-06 07:29N 43°19' W 001°55'0 0.0
2018-Jun-06 06:59N 43°19' W 001°55'1 2.6
2018-Jun-06 06:30N 43°20' W 001°56'1 2.4
2018-Jun-06 06:00N 43°21' W 001°55'0 0.0
2018-Jun-06 05:30N 43°21' W 001°55'0 0.0
2018-Jun-06 05:00N 43°21' W 001°55'0 0.0
2018-Jun-06 04:30N 43°21' W 001°55'0 0.0
2018-Jun-06 04:00N 43°21' W 001°55'0 0.1
2018-Jun-06 03:30N 43°21' W 001°55'0 0.0
2018-Jun-06 03:00N 43°21' W 001°55'0 0.0
2018-Jun-06 02:30N 43°21' W 001°55'0 0.0
2018-Jun-06 02:00N 43°21' W 001°55'0 0.0
2018-Jun-06 01:30N 43°21' W 001°55'0 0.0
2018-Jun-06 01:00N 43°21' W 001°55'0 0.0
2018-Jun-06 00:30N 43°21' W 001°55'  

Dump ship's entire track history